Terminal Aerodrome Forecast
Issued by NWS Omaha/Valley, NE

Home | Current Version | Previous Version | Graphics & Text | Print | Product List | Glossary On
Versions: 1 2 3 4 5 6 7 8 9 10 11 12 13 14 15 16 17 18 19 20
000
FTUS43 KOAX 212329
TAFOFK
TAF
KOFK 212329Z 2200/2224 18009KT P6SM BKN200
     FM220600 18011KT P6SM VCTS BKN150CB PROB30 2209/2213 4SM -TSRA
      OVC040CB
     FM221300 21004KT P6SM BKN250=

USA.gov is the U.S. government's official web portal to all federal, state and local government web resources and services.